Time;durP1;ratioP1;P1;durP2;ratioP2;P2;SDS_P1;SDS_P2;PMS_P1;PMS_P2;Temp;Humidity;BMP_temperature;BMP_pressure;BME280_temperature;BME280_humidity;BME280_pressure;Samples;Min_cycle;Max_cycle;Signal;HPM_P1;HPM_P2
2022/01/07 00:01:39;;;;;;;9.90;9.40;;;;;;;2.11;100.00;100842.91;4972680;28;20031;-64
2022/01/07 00:04:05;;;;;;;9.60;9.10;;;;;;;2.19;100.00;100845.78;4982479;28;20026;-66
2022/01/07 00:06:30;;;;;;;9.82;9.32;;;;;;;2.21;100.00;100852.59;4982737;28;20042;-67
2022/01/07 00:08:56;;;;;;;9.88;9.38;;;;;;;2.24;100.00;100866.41;4977336;28;20030;-66
2022/01/07 00:11:21;;;;;;;10.23;9.73;;;;;;;2.17;100.00;100879.94;4964191;28;20090;-66
2022/01/07 00:13:47;;;;;;;9.82;9.32;;;;;;;2.21;100.00;100873.53;4989868;28;20516;-63
2022/01/07 00:16:13;;;;;;;9.23;8.82;;;;;;;2.29;100.00;100874.75;4977179;28;20632;-64
2022/01/07 00:18:41;;;;;;;9.73;9.23;;;;;;;2.31;100.00;100884.16;4982321;28;20027;-67
2022/01/07 00:21:07;;;;;;;10.27;9.77;;;;;;;2.30;100.00;100884.28;4979260;28;20129;-66
2022/01/07 00:23:32;;;;;;;9.85;9.35;;;;;;;2.22;100.00;100904.00;4975532;28;20117;-66
2022/01/07 00:25:58;;;;;;;9.85;9.35;;;;;;;2.18;100.00;100902.53;4978258;28;20498;-68
2022/01/07 00:28:23;;;;;;;9.80;9.30;;;;;;;2.08;100.00;100904.16;4973530;28;20026;-65
2022/01/07 00:30:49;;;;;;;9.98;9.48;;;;;;;1.98;100.00;100910.16;4979745;28;20026;-65
2022/01/07 00:33:15;;;;;;;10.27;9.77;;;;;;;1.76;100.00;100906.44;4974062;28;20097;-66
2022/01/07 00:35:41;;;;;;;10.43;9.90;;;;;;;1.75;100.00;100925.69;4974939;28;20076;-65
2022/01/07 00:38:07;;;;;;;10.10;9.60;;;;;;;1.75;100.00;100923.09;4972935;28;20109;-64
2022/01/07 00:40:32;;;;;;;10.30;9.80;;;;;;;1.60;100.00;100921.53;4987309;28;20071;-65
2022/01/07 00:42:58;;;;;;;10.68;10.10;;;;;;;1.56;100.00;100934.03;4974355;28;20460;-68
2022/01/07 00:45:25;;;;;;;10.10;9.60;;;;;;;1.49;100.00;100938.00;4971157;28;20122;-64
2022/01/07 00:47:52;;;;;;;11.07;10.50;;;;;;;1.45;100.00;100927.84;4973932;28;20464;-67
2022/01/07 00:50:20;;;;;;;10.38;9.88;;;;;;;1.39;100.00;100952.63;4973796;28;20081;-67
2022/01/07 00:52:47;;;;;;;10.23;9.73;;;;;;;1.32;100.00;100946.16;4983877;28;20018;-66
2022/01/07 00:55:13;;;;;;;10.52;10.02;;;;;;;1.29;100.00;100955.03;4978361;28;20055;-67
2022/01/07 00:57:39;;;;;;;11.20;10.60;;;;;;;1.15;100.00;100959.53;4979424;28;20480;-66
2022/01/07 01:00:08;;;;;;;10.63;10.13;;;;;;;1.00;100.00;100961.41;4987702;28;20039;-66
2022/01/07 01:02:34;;;;;;;10.65;10.15;;;;;;;0.89;100.00;100951.69;4971431;28;20384;-66
2022/01/07 01:05:00;;;;;;;10.57;10.07;;;;;;;0.85;100.00;100957.19;4977710;28;20039;-64
2022/01/07 01:07:26;;;;;;;10.52;10.02;;;;;;;0.82;100.00;100964.31;4970019;28;20392;-65
2022/01/07 01:09:52;;;;;;;11.35;10.75;;;;;;;0.82;100.00;100963.47;4980869;28;20113;-67
2022/01/07 01:12:17;;;;;;;10.90;10.32;;;;;;;0.77;100.00;100965.53;4982586;28;20114;-63
2022/01/07 01:14:42;;;;;;;10.35;9.85;;;;;;;0.68;100.00;100955.72;4974495;28;20143;-65
2022/01/07 01:17:09;;;;;;;10.90;10.30;;;;;;;0.67;100.00;100961.88;4977812;28;20413;-64
2022/01/07 01:19:35;;;;;;;10.55;10.05;;;;;;;0.63;100.00;100976.06;4979158;28;20020;-67
2022/01/07 01:22:00;;;;;;;11.07;10.48;;;;;;;0.62;100.00;100982.22;4972892;28;20085;-64
2022/01/07 01:24:26;;;;;;;10.73;10.23;;;;;;;0.52;100.00;100987.19;4974034;28;20392;-66
2022/01/07 01:26:52;;;;;;;10.50;10.00;;;;;;;0.58;100.00;100989.38;4979671;28;20038;-68
2022/01/07 01:29:20;;;;;;;10.90;10.30;;;;;;;0.54;100.00;100993.16;4983265;28;20464;-64
2022/01/07 01:31:45;;;;;;;10.40;9.90;;;;;;;0.36;100.00;100989.09;4968834;28;20085;-65
2022/01/07 01:34:11;;;;;;;10.80;10.30;;;;;;;0.44;100.00;100999.88;4977434;28;20524;-67
2022/01/07 01:36:36;;;;;;;11.38;10.77;;;;;;;0.41;100.00;100994.88;4972789;28;20030;-65
2022/01/07 01:39:03;;;;;;;10.52;10.02;;;;;;;0.41;100.00;101010.53;4973475;28;20388;-65
2022/01/07 01:41:28;;;;;;;10.38;9.88;;;;;;;0.44;100.00;101012.94;4962159;28;20051;-62
2022/01/07 01:43:55;;;;;;;11.23;10.63;;;;;;;0.43;100.00;101019.91;4970047;28;20507;-67
2022/01/07 01:46:20;;;;;;;11.00;10.40;;;;;;;0.41;100.00;101021.81;4984255;28;20027;-66
2022/01/07 01:48:46;;;;;;;10.65;10.15;;;;;;;0.40;100.00;101032.34;4974472;28;20105;-66
2022/01/07 01:51:13;;;;;;;10.93;10.32;;;;;;;0.46;100.00;101038.00;4976466;28;20054;-67
2022/01/07 01:53:41;;;;;;;10.77;10.20;;;;;;;0.49;100.00;101036.97;4981338;28;20097;-66
2022/01/07 01:56:07;;;;;;;10.90;10.30;;;;;;;0.50;100.00;101049.91;4973470;28;20050;-65
2022/01/07 01:58:33;;;;;;;10.15;9.65;;;;;;;0.53;100.00;101054.13;4980427;28;20034;-65
2022/01/07 02:00:59;;;;;;;10.20;9.70;;;;;;;0.47;100.00;101041.47;4976573;28;20031;-65
2022/01/07 02:03:24;;;;;;;10.30;9.80;;;;;;;0.47;100.00;101055.34;4970032;28;20045;-65
2022/01/07 02:05:50;;;;;;;10.98;10.40;;;;;;;0.37;100.00;101062.09;4977635;28;20019;-66
2022/01/07 02:08:16;;;;;;;10.90;10.30;;;;;;;0.36;100.00;101064.78;4971891;28;20046;-64
2022/01/07 02:10:42;;;;;;;10.40;9.90;;;;;;;0.38;100.00;101068.97;4977243;28;20065;-67
2022/01/07 02:13:08;;;;;;;10.35;9.85;;;;;;;0.43;100.00;101066.06;4965694;28;20027;-66
2022/01/07 02:15:34;;;;;;;10.10;9.60;;;;;;;0.44;100.00;101073.81;4970455;28;20088;-67
2022/01/07 02:17:59;;;;;;;10.48;9.95;;;;;;;0.41;100.00;101068.78;4966622;28;20425;-64
2022/01/07 02:20:28;;;;;;;10.93;10.32;;;;;;;0.42;100.00;101073.06;4984159;28;20037;-65
2022/01/07 02:22:58;;;;;;;10.90;10.30;;;;;;;0.41;100.00;101068.78;4968133;28;20046;-68
2022/01/07 02:25:24;;;;;;;10.30;9.80;;;;;;;0.35;100.00;101070.94;4974313;28;20105;-62
2022/01/07 02:27:51;;;;;;;10.40;9.90;;;;;;;0.37;100.00;101071.66;4974528;28;20089;-64
2022/01/07 02:30:23;;;;;;;10.93;10.32;;;;;;;0.33;100.00;101071.03;4969209;28;20027;-64
2022/01/07 02:32:49;;;;;;;10.10;9.60;;;;;;;0.28;100.00;101079.13;4978845;28;20036;-67
2022/01/07 02:35:17;;;;;;;10.38;9.88;;;;;;;0.28;100.00;101078.31;4977463;28;20030;-64
2022/01/07 02:37:42;;;;;;;11.00;10.40;;;;;;;0.25;100.00;101083.72;4971660;28;20030;-63
2022/01/07 02:40:09;;;;;;;10.20;9.70;;;;;;;0.19;100.00;101089.31;4977698;28;20037;-69
2022/01/07 02:42:35;;;;;;;11.10;10.50;;;;;;;0.21;100.00;101087.44;4980260;28;20454;-66
2022/01/07 02:45:00;;;;;;;11.23;10.63;;;;;;;0.20;100.00;101096.19;4967780;28;20106;-65
2022/01/07 02:47:31;;;;;;;10.70;10.20;;;;;;;0.19;100.00;101104.97;4983053;28;20555;-68
2022/01/07 02:50:04;;;;;;;10.25;9.75;;;;;;;0.16;100.00;101102.56;4973626;28;20149;-65
2022/01/07 02:52:29;;;;;;;10.55;10.05;;;;;;;0.18;100.00;101101.53;4969820;28;20161;-66
2022/01/07 02:54:55;;;;;;;10.20;9.70;;;;;;;0.24;100.00;101113.34;4970365;28;20050;-67
2022/01/07 02:57:20;;;;;;;10.35;9.85;;;;;;;0.22;100.00;101115.19;4973586;28;20058;-64
2022/01/07 02:59:46;;;;;;;10.30;9.80;;;;;;;0.21;100.00;101113.53;4975808;28;20148;-66
2022/01/07 03:02:11;;;;;;;10.90;10.30;;;;;;;0.15;100.00;101112.16;4975737;28;20027;-66
2022/01/07 03:04:37;;;;;;;10.88;10.30;;;;;;;0.22;100.00;101118.69;4975464;28;20030;-65
2022/01/07 03:07:02;;;;;;;10.55;10.05;;;;;;;0.18;100.00;101122.41;4967253;28;20031;-65
2022/01/07 03:09:29;;;;;;;10.07;9.57;;;;;;;0.24;100.00;101134.22;4969154;28;20041;-68
2022/01/07 03:11:54;;;;;;;10.00;9.50;;;;;;;0.22;100.00;101121.28;4971059;28;20046;-68
2022/01/07 03:14:20;;;;;;;10.60;10.05;;;;;;;0.26;99.91;101127.16;4974056;28;20481;-64
2022/01/07 03:16:45;;;;;;;10.65;10.15;;;;;;;0.22;98.77;101126.50;4973818;28;20482;-65
2022/01/07 03:19:11;;;;;;;10.95;10.35;;;;;;;0.24;97.80;101121.19;4977256;28;20441;-64
2022/01/07 03:21:36;;;;;;;10.68;10.18;;;;;;;0.22;96.89;101120.41;4975253;28;20105;-64
2022/01/07 03:24:02;;;;;;;10.88;10.27;;;;;;;0.20;95.47;101130.13;4983414;28;20041;-67
2022/01/07 03:26:27;;;;;;;10.30;9.80;;;;;;;0.24;95.55;101145.50;4972567;28;20034;-65
2022/01/07 03:28:53;;;;;;;10.18;9.68;;;;;;;0.29;95.44;101147.81;4963159;28;20042;-65
2022/01/07 03:31:18;;;;;;;11.57;10.88;;;;;;;0.25;94.35;101149.78;4963395;28;20031;-65
2022/01/07 03:33:44;;;;;;;10.50;10.00;;;;;;;0.30;94.74;101153.91;4976246;28;20026;-65
2022/01/07 03:36:09;;;;;;;10.43;9.93;;;;;;;0.28;94.45;101167.84;4976711;28;20146;-64
2022/01/07 03:38:35;;;;;;;10.95;10.35;;;;;;;0.27;94.12;101171.41;4975139;28;20022;-64
2022/01/07 03:41:00;;;;;;;10.77;10.20;;;;;;;0.28;95.00;101173.06;4968821;28;20138;-66
2022/01/07 03:43:26;;;;;;;10.50;10.00;;;;;;;0.27;94.83;101181.00;4972448;28;20153;-63
2022/01/07 03:45:52;;;;;;;10.23;9.73;;;;;;;0.22;94.01;101183.03;4969753;28;20046;-66
2022/01/07 03:48:17;;;;;;;11.02;10.43;;;;;;;0.25;93.83;101188.94;4973585;28;20023;-63
2022/01/07 03:50:43;;;;;;;10.40;9.90;;;;;;;0.28;94.63;101195.72;4972391;28;20042;-67
2022/01/07 03:53:08;;;;;;;10.85;10.27;;;;;;;0.30;95.34;101201.72;4974750;28;20084;-62
2022/01/07 03:55:34;;;;;;;10.60;10.00;;;;;;;0.30;93.67;101206.09;4956770;28;20078;-63
2022/01/07 03:58:00;;;;;;;10.27;9.77;;;;;;;0.28;92.70;101214.00;4971658;28;20053;-66
2022/01/07 04:00:34;;;;;;;10.63;10.13;;;;;;;0.32;93.04;101217.28;4970435;28;20037;-63
2022/01/07 04:03:05;;;;;;;11.18;10.52;;;;;;;0.34;93.24;101218.00;4973658;28;20085;-64
2022/01/07 04:05:31;;;;;;;10.40;9.90;;;;;;;0.25;92.98;101225.47;4971330;28;20432;-62
2022/01/07 04:07:56;;;;;;;11.40;10.80;;;;;;;0.26;93.57;101224.53;4972832;28;20041;-66
2022/01/07 04:10:22;;;;;;;10.77;10.25;;;;;;;0.26;93.96;101234.13;4968149;28;20035;-63
2022/01/07 04:12:48;;;;;;;12.15;11.45;;;;;;;0.26;93.47;101231.50;4964756;28;20469;-65
2022/01/07 04:15:14;;;;;;;12.00;11.32;;;;;;;0.29;92.96;101231.31;4962175;28;20425;-66
2022/01/07 04:17:42;;;;;;;12.25;11.55;;;;;;;0.30;92.99;101232.19;4963028;28;20046;-67
2022/01/07 04:20:11;;;;;;;10.65;10.10;;;;;;;0.28;93.22;101240.91;4965655;28;20030;-64
2022/01/07 04:22:36;;;;;;;10.60;10.07;;;;;;;0.31;93.02;101246.91;4969389;28;20135;-65
2022/01/07 04:25:05;;;;;;;10.68;10.15;;;;;;;0.30;92.76;101248.69;4976330;28;20058;-64
2022/01/07 04:27:31;;;;;;;10.57;10.07;;;;;;;0.25;91.99;101245.50;4977096;28;20113;-65
2022/01/07 04:29:57;;;;;;;10.40;9.90;;;;;;;0.24;92.11;101255.09;4972814;28;20565;-65
2022/01/07 04:32:22;;;;;;;10.70;10.18;;;;;;;0.23;92.15;101257.81;4965711;28;20042;-65
2022/01/07 04:34:49;;;;;;;10.90;10.30;;;;;;;0.27;92.22;101259.28;4972303;28;20030;-64
2022/01/07 04:37:14;;;;;;;10.32;9.82;;;;;;;0.21;92.01;101254.41;4965057;28;20031;-68
2022/01/07 04:39:40;;;;;;;11.43;10.82;;;;;;;0.17;91.80;101255.56;4970913;28;20428;-67
2022/01/07 04:42:05;;;;;;;10.50;10.00;;;;;;;0.17;92.14;101259.00;4970064;28;20059;-63
2022/01/07 04:44:31;;;;;;;11.05;10.45;;;;;;;0.17;91.47;101261.59;4976351;28;20027;-64
2022/01/07 04:46:56;;;;;;;10.70;10.10;;;;;;;0.17;91.00;101272.03;4971165;28;20487;-64
2022/01/07 04:49:22;;;;;;;10.77;10.20;;;;;;;0.17;91.39;101269.44;4974978;28;20035;-64
2022/01/07 04:51:47;;;;;;;11.27;10.68;;;;;;;0.15;90.96;101279.13;4967688;28;20038;-65
2022/01/07 04:54:13;;;;;;;10.95;10.35;;;;;;;0.18;91.32;101281.53;4973673;28;20389;-66
2022/01/07 04:56:38;;;;;;;11.48;10.88;;;;;;;0.18;90.03;101286.75;4972641;28;20166;-64
2022/01/07 04:59:04;;;;;;;10.82;10.23;;;;;;;0.21;89.23;101285.72;4965163;28;20031;-65
2022/01/07 05:01:29;;;;;;;10.60;10.02;;;;;;;0.19;88.84;101288.44;4975920;28;20057;-65
2022/01/07 05:03:55;;;;;;;11.55;10.85;;;;;;;0.16;89.09;101299.06;4972932;28;20023;-68
2022/01/07 05:06:44;;;;;;;11.50;10.82;;;;;;;0.17;89.06;101297.28;4967871;28;20572;-68
2022/01/07 05:09:08;;;;;;;10.95;10.35;;;;;;;0.18;87.76;101299.81;4969952;28;20045;-66
2022/01/07 05:11:34;;;;;;;10.23;9.73;;;;;;;0.23;88.60;101304.78;4966743;28;20031;-64
2022/01/07 05:13:59;;;;;;;10.32;9.82;;;;;;;0.17;87.37;101313.78;4977329;28;20057;-66
2022/01/07 05:16:26;;;;;;;11.80;11.15;;;;;;;0.23;86.90;101307.38;4980750;28;20114;-68
2022/01/07 05:18:52;;;;;;;11.48;10.80;;;;;;;0.16;85.24;101317.31;4970375;28;20037;-66
2022/01/07 05:21:17;;;;;;;10.63;10.10;;;;;;;0.12;84.54;101315.81;4970670;28;20035;-68
2022/01/07 05:23:42;;;;;;;11.02;10.43;;;;;;;0.17;83.83;101324.22;4977555;28;20031;-66
2022/01/07 05:26:08;;;;;;;11.88;11.18;;;;;;;0.14;83.97;101313.09;4975123;28;20026;-63
2022/01/07 05:28:33;;;;;;;11.63;10.93;;;;;;;0.04;82.92;101330.22;4976860;28;20018;-64
2022/01/07 05:31:00;;;;;;;10.63;10.13;;;;;;;0.01;83.24;101326.03;4973665;28;20118;-63
2022/01/07 05:33:26;;;;;;;11.40;10.80;;;;;;;-0.09;83.23;101341.34;4972967;28;20559;-68
2022/01/07 05:35:51;;;;;;;10.95;10.35;;;;;;;-0.14;83.99;101351.22;4976642;28;20053;-64
2022/01/07 05:38:17;;;;;;;12.60;11.80;;;;;;;-0.21;83.98;101356.84;4972804;28;20030;-65
2022/01/07 05:40:42;;;;;;;11.75;11.05;;;;;;;-0.26;84.35;101354.50;4964337;28;20469;-66
2022/01/07 05:43:08;;;;;;;11.32;10.68;;;;;;;-0.32;84.49;101363.47;4981823;28;20045;-64
2022/01/07 05:45:33;;;;;;;11.20;10.60;;;;;;;-0.37;84.90;101368.13;4978633;28;20048;-66
2022/01/07 05:47:59;;;;;;;12.00;11.30;;;;;;;-0.44;85.41;101366.78;4967619;28;20045;-66
2022/01/07 05:50:24;;;;;;;11.82;11.23;;;;;;;-0.52;85.30;101360.28;4979417;28;20090;-64
2022/01/07 05:52:50;;;;;;;12.15;11.50;;;;;;;-0.54;85.52;101364.75;4975135;28;20041;-65
2022/01/07 05:55:15;;;;;;;12.43;11.73;;;;;;;-0.63;86.53;101369.53;4981710;28;20054;-63
2022/01/07 05:57:41;;;;;;;12.23;11.63;;;;;;;-0.60;86.07;101381.53;4980427;28;20033;-67
2022/01/07 06:00:09;;;;;;;13.43;12.68;;;;;;;-0.58;86.65;101395.34;4973476;28;20031;-65
2022/01/07 06:02:34;;;;;;;12.48;11.88;;;;;;;-0.30;88.64;101398.13;4973964;28;20073;-62
2022/01/07 06:05:00;;;;;;;11.77;11.18;;;;;;;-0.32;86.84;101407.81;4969134;28;20035;-65
2022/01/07 06:07:25;;;;;;;11.38;10.77;;;;;;;-0.26;87.19;101408.41;4969969;28;20030;-63
2022/01/07 06:09:51;;;;;;;12.70;11.90;;;;;;;0.07;85.30;101403.06;4967658;28;20026;-64
2022/01/07 06:12:17;;;;;;;11.65;11.00;;;;;;;-0.21;84.87;101411.63;4977684;28;20366;-69
2022/01/07 06:14:42;;;;;;;12.30;11.60;;;;;;;-0.14;84.44;101408.59;4973583;28;20106;-66
2022/01/07 06:17:10;;;;;;;14.25;13.20;;;;;;;-0.16;83.42;101410.41;4969732;28;20077;-73
2022/01/07 06:19:36;;;;;;;14.05;13.27;;;;;;;0.12;83.06;101420.16;4965496;28;20037;-65
2022/01/07 06:22:02;;;;;;;11.57;11.00;;;;;;;0.32;82.20;101426.88;4962945;28;20118;-69
2022/01/07 06:24:28;;;;;;;11.02;10.43;;;;;;;1.04;79.17;101433.16;4969146;28;20041;-67
2022/01/07 06:26:53;;;;;;;9.32;8.90;;;;;;;1.08;80.38;101434.63;4972640;28;20039;-68
2022/01/07 06:29:19;;;;;;;10.68;10.07;;;;;;;0.77;80.33;101443.44;4963688;28;20062;-69
2022/01/07 06:31:44;;;;;;;10.65;10.05;;;;;;;1.19;79.93;101453.16;4970077;28;20092;-67
2022/01/07 06:34:09;;;;;;;10.73;10.13;;;;;;;1.46;77.67;101447.16;4968900;28;20550;-68
2022/01/07 06:36:35;;;;;;;11.32;10.63;;;;;;;1.53;77.59;101453.69;4971856;28;20033;-65
2022/01/07 06:39:00;;;;;;;9.60;9.10;;;;;;;2.37;74.74;101459.72;4971033;28;20385;-70
2022/01/07 06:41:26;;;;;;;11.65;10.90;;;;;;;4.78;65.44;101462.22;4970280;28;20097;-66
2022/01/07 06:43:51;;;;;;;10.02;9.43;;;;;;;6.56;58.10;101473.72;4969213;28;20413;-64
2022/01/07 06:46:17;;;;;;;9.65;9.15;;;;;;;6.58;57.00;101474.41;4970256;28;20038;-69
2022/01/07 06:48:43;;;;;;;9.85;9.25;;;;;;;5.23;56.90;101463.16;4968781;28;20105;-68
2022/01/07 06:51:09;;;;;;;11.07;10.40;;;;;;;3.93;63.66;101470.13;4969447;28;20045;-66
2022/01/07 06:53:34;;;;;;;10.35;9.75;;;;;;;3.70;63.93;101479.59;4968474;28;20019;-68
2022/01/07 06:56:00;;;;;;;10.48;9.90;;;;;;;3.83;63.18;101479.59;4969971;28;20054;-67
2022/01/07 06:58:26;;;;;;;10.05;9.55;;;;;;;4.15;61.72;101477.31;4962246;28;20388;-68
2022/01/07 07:00:53;;;;;;;10.98;10.38;;;;;;;4.72;60.05;101477.47;4972428;28;20467;-69
2022/01/07 07:03:18;;;;;;;10.25;9.75;;;;;;;4.83;59.81;101479.31;4971464;28;20031;-66
2022/01/07 07:05:44;;;;;;;10.90;10.30;;;;;;;6.11;56.62;101486.19;4955491;28;20023;-63
2022/01/07 07:08:10;;;;;;;11.50;10.80;;;;;;;10.24;44.94;101488.34;4972422;28;20027;-68
2022/01/07 07:10:35;;;;;;;9.32;8.82;;;;;;;11.00;41.68;101486.06;4972782;28;20113;-67
2022/01/07 07:13:00;;;;;;;8.43;8.02;;;;;;;10.99;40.86;101484.41;4972056;28;20027;-65
2022/01/07 07:15:26;;;;;;;8.80;8.40;;;;;;;11.89;39.06;101493.78;4971164;28;20026;-71
2022/01/07 07:17:51;;;;;;;8.73;8.32;;;;;;;12.89;36.64;101496.53;4969259;28;20035;-67
2022/01/07 07:20:18;;;;;;;9.07;8.68;;;;;;;12.95;36.57;101509.19;4969792;28;20031;-65
2022/01/07 07:22:44;;;;;;;8.50;8.10;;;;;;;12.70;35.81;101506.50;4971006;28;20031;-68
2022/01/07 07:25:10;;;;;;;9.05;8.65;;;;;;;13.03;34.82;101498.53;4971799;28;20058;-66
2022/01/07 07:27:36;;;;;;;8.88;8.48;;;;;;;12.78;35.91;101500.38;4972538;28;20031;-68
2022/01/07 07:30:05;;;;;;;8.95;8.55;;;;;;;13.32;35.07;101499.88;4972287;28;20030;-64
2022/01/07 07:32:31;;;;;;;8.57;8.18;;;;;;;11.82;36.95;101507.88;4972164;28;20030;-68
2022/01/07 07:35:03;;;;;;;9.70;9.20;;;;;;;11.19;37.82;101511.63;4972283;28;20106;-66
2022/01/07 07:37:29;;;;;;;8.63;8.23;;;;;;;12.42;35.88;101513.94;4972347;28;20480;-68
2022/01/07 07:39:55;;;;;;;9.30;8.90;;;;;;;11.41;37.34;101514.78;4973268;28;20023;-67
2022/01/07 07:42:21;;;;;;;8.90;8.50;;;;;;;12.50;35.54;101528.28;4974962;28;20396;-65
2022/01/07 07:44:46;;;;;;;8.48;8.07;;;;;;;13.53;32.99;101524.16;4965481;28;20034;-66
2022/01/07 07:47:12;;;;;;;8.90;8.50;;;;;;;13.19;33.59;101530.50;4961357;28;20039;-67
2022/01/07 07:49:37;;;;;;;9.35;8.95;;;;;;;13.96;32.56;101538.06;4975925;28;20473;-66
2022/01/07 07:52:04;;;;;;;8.65;8.25;;;;;;;14.33;32.43;101532.88;4976036;28;20037;-67
2022/01/07 07:54:30;;;;;;;9.13;8.73;;;;;;;14.20;31.85;101542.47;4967176;28;20085;-66
2022/01/07 07:56:57;;;;;;;8.50;8.10;;;;;;;14.77;30.72;101547.53;4975321;28;20031;-67
2022/01/07 07:59:24;;;;;;;8.43;8.02;;;;;;;14.56;31.10;101546.31;4975852;28;20038;-68
2022/01/07 08:01:49;;;;;;;9.00;8.60;;;;;;;14.95;29.47;101550.72;4974747;28;20057;-65
2022/01/07 08:04:18;;;;;;;8.60;8.20;;;;;;;15.25;30.10;101550.81;4975876;28;20453;-65
2022/01/07 08:06:43;;;;;;;8.60;8.20;;;;;;;14.32;30.94;101557.94;4974432;28;20046;-68
2022/01/07 08:09:09;;;;;;;8.85;8.45;;;;;;;14.34;30.26;101547.91;4972145;28;20038;-65
2022/01/07 08:11:48;;;;;;;8.70;8.30;;;;;;;14.43;30.92;101554.03;4974321;28;20018;-64
2022/01/07 08:16:57;;;;;;;9.07;8.68;;;;;;;15.15;30.12;101561.78;4972295;28;20093;-67
2022/01/07 08:19:23;;;;;;;9.40;9.00;;;;;;;14.95;30.50;101561.41;4974797;28;20030;-67
2022/01/07 08:21:48;;;;;;;8.75;8.35;;;;;;;14.93;29.90;101566.94;4972341;28;20488;-67
2022/01/07 08:24:14;;;;;;;9.25;8.85;;;;;;;14.42;30.16;101564.88;4974001;28;20034;-69
2022/01/07 08:26:39;;;;;;;8.60;8.20;;;;;;;13.96;31.11;101567.41;4973975;28;20507;-67
2022/01/07 08:29:07;;;;;;;8.77;8.38;;;;;;;14.90;29.89;101571.78;4973710;28;20559;-67
2022/01/07 08:36:43;;;;;;;8.55;8.15;;;;;;;15.07;29.20;101573.34;4972234;28;20065;-66
2022/01/07 08:39:10;;;;;;;8.70;8.30;;;;;;;15.10;28.93;101582.84;4975107;28;20058;-68
2022/01/07 08:41:36;;;;;;;8.68;8.27;;;;;;;10.99;33.91;101573.84;4973369;28;20047;-65
2022/01/07 08:44:03;;;;;;;9.30;8.90;;;;;;;10.99;33.16;101571.19;4974023;28;20477;-66
2022/01/07 08:46:29;;;;;;;9.70;9.20;;;;;;;13.63;30.38;101570.13;4974625;28;20134;-68
2022/01/07 08:48:54;;;;;;;9.32;8.93;;;;;;;15.03;28.31;101569.38;4973262;28;20516;-65
2022/01/07 08:51:20;;;;;;;9.73;9.23;;;;;;;15.73;27.57;101568.28;4959590;28;20029;-66
2022/01/07 08:53:45;;;;;;;8.65;8.25;;;;;;;15.72;27.36;101569.31;4973622;28;20039;-67
2022/01/07 08:56:11;;;;;;;8.63;8.23;;;;;;;15.55;28.08;101568.59;4973224;28;20042;-69
2022/01/07 08:58:36;;;;;;;9.30;8.90;;;;;;;15.07;28.83;101570.69;4974259;28;20027;-65
2022/01/07 09:01:03;;;;;;;9.00;8.60;;;;;;;12.56;31.04;101564.84;4973661;28;20049;-71
2022/01/07 09:03:28;;;;;;;8.63;8.23;;;;;;;13.90;30.33;101563.56;4971370;28;20023;-65
2022/01/07 09:05:54;;;;;;;8.98;8.57;;;;;;;15.29;27.30;101562.84;4972798;28;20041;-69
2022/01/07 09:08:19;;;;;;;8.70;8.30;;;;;;;14.01;28.74;101549.03;4973199;28;20062;-66
2022/01/07 09:10:45;;;;;;;9.13;8.73;;;;;;;13.87;28.83;101553.22;4974363;28;20030;-70
2022/01/07 09:13:11;;;;;;;8.77;8.38;;;;;;;14.59;28.63;101555.78;4974303;28;20444;-69
2022/01/07 09:15:37;;;;;;;9.23;8.82;;;;;;;14.19;28.69;101562.97;4973171;28;20226;-67
2022/01/07 09:18:11;;;;;;;9.35;8.95;;;;;;;14.28;29.27;101564.59;4965610;28;20027;-67
2022/01/07 09:20:42;;;;;;;8.82;8.43;;;;;;;14.43;28.50;101555.88;4967074;28;20444;-68
2022/01/07 09:23:08;;;;;;;8.70;8.30;;;;;;;13.48;29.65;101561.97;4973270;28;20038;-68
2022/01/07 09:25:34;;;;;;;8.68;8.27;;;;;;;14.13;29.25;101558.34;4972463;28;20023;-67
2022/01/07 09:27:59;;;;;;;9.10;8.70;;;;;;;14.01;29.79;101552.53;4974211;28;20062;-69
2022/01/07 09:30:26;;;;;;;9.20;8.80;;;;;;;13.98;29.51;101552.06;4972643;28;20499;-68
2022/01/07 09:32:51;;;;;;;9.13;8.73;;;;;;;11.29;32.74;101544.22;4967982;28;20023;-66
2022/01/07 09:35:17;;;;;;;9.70;9.20;;;;;;;8.25;38.82;101545.56;4973942;28;20397;-68
2022/01/07 09:37:43;;;;;;;9.45;8.98;;;;;;;7.82;39.94;101540.53;4973850;28;20022;-68
2022/01/07 09:40:10;;;;;;;10.98;10.38;;;;;;;7.49;40.78;101531.88;4973959;28;20029;-68
2022/01/07 09:42:36;;;;;;;10.20;9.70;;;;;;;6.46;43.20;101528.13;4973841;28;20019;-68
2022/01/07 09:45:03;;;;;;;10.90;10.30;;;;;;;6.06;44.91;101526.88;4972911;28;20034;-66
2022/01/07 09:47:29;;;;;;;10.48;9.98;;;;;;;5.14;47.00;101524.34;4972188;28;20035;-66
2022/01/07 09:49:54;;;;;;;11.25;10.65;;;;;;;5.14;47.57;101533.09;4973934;28;20058;-67
2022/01/07 09:52:20;;;;;;;11.25;10.65;;;;;;;5.37;46.95;101525.25;4971822;28;20041;-64
2022/01/07 09:54:47;;;;;;;11.18;10.57;;;;;;;5.34;46.68;101522.84;4973073;28;20050;-67
2022/01/07 09:57:13;;;;;;;10.68;10.10;;;;;;;5.40;47.30;101525.00;4971641;28;20042;-65
2022/01/07 09:59:38;;;;;;;10.90;10.30;;;;;;;5.11;49.11;101527.22;4970983;28;20030;-69
2022/01/07 10:02:05;;;;;;;10.25;9.75;;;;;;;4.97;48.51;101533.50;4968179;28;20031;-68
2022/01/07 10:04:41;;;;;;;11.00;10.40;;;;;;;4.57;49.83;101528.53;4973217;28;20081;-66
2022/01/07 10:07:20;;;;;;;11.77;11.07;;;;;;;4.65;50.56;101531.44;4971682;28;20118;-66
2022/01/07 10:10:09;;;;;;;11.43;10.75;;;;;;;4.48;51.08;101521.34;4972973;28;20031;-66
2022/01/07 10:13:03;;;;;;;10.75;10.15;;;;;;;4.27;51.81;101515.84;4972756;28;20073;-66
2022/01/07 10:15:31;;;;;;;11.65;10.95;;;;;;;4.32;51.10;101515.47;4968935;28;20046;-63
2022/01/07 10:18:01;;;;;;;10.20;9.70;;;;;;;4.13;52.20;101529.94;4968998;28;20030;-66
2022/01/07 10:20:32;;;;;;;11.43;10.75;;;;;;;4.09;52.36;101517.97;4972721;28;20058;-67
2022/01/07 10:23:04;;;;;;;10.55;9.98;;;;;;;3.37;54.07;101510.78;4971310;28;20511;-67
2022/01/07 10:25:35;;;;;;;10.32;9.82;;;;;;;3.33;54.58;101518.84;4971661;28;20054;-64
2022/01/07 10:28:06;;;;;;;10.32;9.80;;;;;;;3.36;54.80;101509.94;4968591;28;20110;-71
2022/01/07 10:31:00;;;;;;;11.02;10.43;;;;;;;2.93;56.41;101509.34;4969545;28;20030;-69
2022/01/07 10:33:28;;;;;;;11.57;10.88;;;;;;;3.00;56.65;101518.47;4972803;28;20031;-68
2022/01/07 10:36:18;;;;;;;10.85;10.25;;;;;;;3.45;55.68;101518.94;4971284;28;20038;-65
2022/01/07 10:38:59;;;;;;;10.95;10.35;;;;;;;3.40;55.31;101516.66;4967425;28;20038;-66
2022/01/07 10:41:25;;;;;;;10.80;10.20;;;;;;;3.14;55.87;101512.31;4971621;28;20039;-65
2022/01/07 10:43:52;;;;;;;10.75;10.15;;;;;;;3.06;56.09;101525.94;4970870;28;20556;-68
2022/01/07 10:46:20;;;;;;;10.73;10.13;;;;;;;3.09;56.42;101515.28;4972189;28;20392;-66
2022/01/07 10:48:56;;;;;;;10.52;9.93;;;;;;;3.09;56.65;101519.69;4967021;28;20038;-67
2022/01/07 10:51:29;;;;;;;10.80;10.20;;;;;;;3.11;56.70;101512.53;4972310;28;20048;-67
2022/01/07 10:54:00;;;;;;;11.07;10.38;;;;;;;3.22;56.71;101513.47;4970909;28;20027;-63
2022/01/07 10:56:31;;;;;;;12.13;11.32;;;;;;;3.17;56.73;101499.88;4963544;28;20390;-67
2022/01/07 10:59:08;;;;;;;10.45;9.85;;;;;;;3.09;55.20;101509.19;4970582;28;20473;-69
2022/01/07 11:01:38;;;;;;;11.00;10.35;;;;;;;3.10;55.21;101505.63;4972135;28;20034;-68
2022/01/07 11:04:10;;;;;;;10.10;9.50;;;;;;;3.35;55.73;101505.63;4971140;28;20393;-66
2022/01/07 11:06:37;;;;;;;9.98;9.48;;;;;;;3.16;56.45;101511.28;4971090;28;20062;-65
2022/01/07 11:09:07;;;;;;;12.68;11.85;;;;;;;3.16;55.84;101515.66;4970525;28;20061;-68
2022/01/07 11:11:33;;;;;;;10.50;9.90;;;;;;;3.23;56.23;101514.31;4971103;28;20506;-66
2022/01/07 11:14:07;;;;;;;10.75;10.15;;;;;;;3.44;56.28;101509.41;4972483;28;20038;-67
2022/01/07 11:16:35;;;;;;;9.93;9.43;;;;;;;3.49;55.82;101513.41;4977144;28;20038;-66
2022/01/07 11:19:02;;;;;;;11.07;10.38;;;;;;;3.46;56.30;101508.38;4975604;28;20042;-65
2022/01/07 11:21:29;;;;;;;10.38;9.77;;;;;;;3.51;55.81;101514.13;4978718;28;20110;-67
2022/01/07 11:23:55;;;;;;;10.70;10.10;;;;;;;3.39;55.37;101503.66;4974579;28;20054;-69
2022/01/07 11:26:20;;;;;;;9.65;9.15;;;;;;;3.34;56.69;101503.97;4971215;28;20023;-69